sensor_id;sensor_type;location;lat;lon;timestamp;temperature;humidity
57566;DHT22;43401;43.788;-0.712;2022-07-05T00:02:05;20.90;99.90
57566;DHT22;43401;43.788;-0.712;2022-07-05T00:04:31;20.80;99.90
57566;DHT22;43401;43.788;-0.712;2022-07-05T00:06:57;20.80;99.90
57566;DHT22;43401;43.788;-0.712;2022-07-05T00:09:41;20.70;99.90
57566;DHT22;43401;43.788;-0.712;2022-07-05T00:12:07;20.90;99.90
57566;DHT22;43401;43.788;-0.712;2022-07-05T00:14:33;21.00;99.90
57566;DHT22;43401;43.788;-0.712;2022-07-05T00:16:59;20.90;99.90
57566;DHT22;43401;43.788;-0.712;2022-07-05T00:19:25;21.00;99.90
57566;DHT22;43401;43.788;-0.712;2022-07-05T00:21:50;21.00;99.90
57566;DHT22;43401;43.788;-0.712;2022-07-05T00:24:16;21.00;99.90
57566;DHT22;43401;43.788;-0.712;2022-07-05T00:26:41;21.00;99.90
57566;DHT22;43401;43.788;-0.712;2022-07-05T00:29:07;21.00;99.90
57566;DHT22;43401;43.788;-0.712;2022-07-05T00:31:33;20.90;99.90
57566;DHT22;43401;43.788;-0.712;2022-07-05T00:33:58;20.90;99.90
57566;DHT22;43401;43.788;-0.712;2022-07-05T00:36:24;20.90;99.90
57566;DHT22;43401;43.788;-0.712;2022-07-05T00:38:50;20.90;99.90
57566;DHT22;43401;43.788;-0.712;2022-07-05T00:41:16;21.00;99.90
57566;DHT22;43401;43.788;-0.712;2022-07-05T00:43:56;20.90;99.90
57566;DHT22;43401;43.788;-0.712;2022-07-05T00:46:22;20.90;99.90
57566;DHT22;43401;43.788;-0.712;2022-07-05T00:48:48;20.90;99.90
57566;DHT22;43401;43.788;-0.712;2022-07-05T00:51:14;21.00;99.90
57566;DHT22;43401;43.788;-0.712;2022-07-05T00:53:40;20.90;99.90
57566;DHT22;43401;43.788;-0.712;2022-07-05T00:56:06;20.90;99.90
57566;DHT22;43401;43.788;-0.712;2022-07-05T00:58:32;20.80;99.90
57566;DHT22;43401;43.788;-0.712;2022-07-05T01:00:59;20.80;99.90
57566;DHT22;43401;43.788;-0.712;2022-07-05T01:03:24;20.80;99.90
57566;DHT22;43401;43.788;-0.712;2022-07-05T01:05:54;20.90;99.90
57566;DHT22;43401;43.788;-0.712;2022-07-05T01:08:22;20.80;99.90
57566;DHT22;43401;43.788;-0.712;2022-07-05T01:10:47;20.80;99.90
57566;DHT22;43401;43.788;-0.712;2022-07-05T01:13:14;20.80;99.90
57566;DHT22;43401;43.788;-0.712;2022-07-05T01:15:40;20.70;99.90
57566;DHT22;43401;43.788;-0.712;2022-07-05T01:18:07;20.90;99.90
57566;DHT22;43401;43.788;-0.712;2022-07-05T01:20:33;20.70;99.90
57566;DHT22;43401;43.788;-0.712;2022-07-05T01:22:59;20.80;99.90
57566;DHT22;43401;43.788;-0.712;2022-07-05T01:25:28;20.80;99.90
57566;DHT22;43401;43.788;-0.712;2022-07-05T01:27:56;20.80;99.90
57566;DHT22;43401;43.788;-0.712;2022-07-05T01:30:22;20.70;99.90
57566;DHT22;43401;43.788;-0.712;2022-07-05T01:32:48;20.60;99.90
57566;DHT22;43401;43.788;-0.712;2022-07-05T01:35:15;20.60;99.90
57566;DHT22;43401;43.788;-0.712;2022-07-05T01:37:47;20.70;99.90
57566;DHT22;43401;43.788;-0.712;2022-07-05T01:40:14;20.70;99.90
57566;DHT22;43401;43.788;-0.712;2022-07-05T01:42:40;20.70;99.90
57566;DHT22;43401;43.788;-0.712;2022-07-05T01:45:06;20.70;99.90
57566;DHT22;43401;43.788;-0.712;2022-07-05T01:47:43;20.70;99.90
57566;DHT22;43401;43.788;-0.712;2022-07-05T01:50:13;20.80;99.90
57566;DHT22;43401;43.788;-0.712;2022-07-05T01:52:43;20.80;99.90
57566;DHT22;43401;43.788;-0.712;2022-07-05T01:55:09;20.80;99.90
57566;DHT22;43401;43.788;-0.712;2022-07-05T01:57:35;20.80;99.90
57566;DHT22;43401;43.788;-0.712;2022-07-05T02:00:01;20.70;99.90
57566;DHT22;43401;43.788;-0.712;2022-07-05T02:02:27;20.70;99.90
57566;DHT22;43401;43.788;-0.712;2022-07-05T02:04:53;20.60;99.90
57566;DHT22;43401;43.788;-0.712;2022-07-05T02:07:18;20.60;99.90
57566;DHT22;43401;43.788;-0.712;2022-07-05T02:09:44;20.60;99.90
57566;DHT22;43401;43.788;-0.712;2022-07-05T02:12:10;20.50;99.90
57566;DHT22;43401;43.788;-0.712;2022-07-05T02:14:36;20.60;99.90
57566;DHT22;43401;43.788;-0.712;2022-07-05T02:17:01;20.40;99.90
57566;DHT22;43401;43.788;-0.712;2022-07-05T02:19:27;20.40;99.90
57566;DHT22;43401;43.788;-0.712;2022-07-05T02:21:53;20.40;99.90
57566;DHT22;43401;43.788;-0.712;2022-07-05T02:24:20;20.40;99.90
57566;DHT22;43401;43.788;-0.712;2022-07-05T02:26:47;20.30;99.90
57566;DHT22;43401;43.788;-0.712;2022-07-05T02:29:13;20.40;99.90
57566;DHT22;43401;43.788;-0.712;2022-07-05T02:31:38;20.30;99.90
57566;DHT22;43401;43.788;-0.712;2022-07-05T02:34:04;20.30;99.90
57566;DHT22;43401;43.788;-0.712;2022-07-05T02:36:30;20.30;99.90
57566;DHT22;43401;43.788;-0.712;2022-07-05T02:38:56;20.20;99.90
57566;DHT22;43401;43.788;-0.712;2022-07-05T02:41:21;20.20;99.90
57566;DHT22;43401;43.788;-0.712;2022-07-05T02:43:47;20.20;99.90
57566;DHT22;43401;43.788;-0.712;2022-07-05T02:46:13;20.20;99.90
57566;DHT22;43401;43.788;-0.712;2022-07-05T02:48:39;20.10;99.90
57566;DHT22;43401;43.788;-0.712;2022-07-05T02:51:06;20.00;99.90
57566;DHT22;43401;43.788;-0.712;2022-07-05T02:53:32;20.10;99.90
57566;DHT22;43401;43.788;-0.712;2022-07-05T02:55:59;20.10;99.90
57566;DHT22;43401;43.788;-0.712;2022-07-05T02:58:25;20.10;99.90
57566;DHT22;43401;43.788;-0.712;2022-07-05T03:00:51;19.90;99.90
57566;DHT22;43401;43.788;-0.712;2022-07-05T03:03:17;20.00;99.90
57566;DHT22;43401;43.788;-0.712;2022-07-05T03:05:43;20.00;99.90
57566;DHT22;43401;43.788;-0.712;2022-07-05T03:08:08;20.00;99.90
57566;DHT22;43401;43.788;-0.712;2022-07-05T03:10:34;19.90;99.90
57566;DHT22;43401;43.788;-0.712;2022-07-05T03:13:01;19.80;99.90
57566;DHT22;43401;43.788;-0.712;2022-07-05T03:15:27;19.70;99.90
57566;DHT22;43401;43.788;-0.712;2022-07-05T03:17:53;19.80;99.90
57566;DHT22;43401;43.788;-0.712;2022-07-05T03:20:18;19.90;99.90
57566;DHT22;43401;43.788;-0.712;2022-07-05T03:22:44;19.90;99.90
57566;DHT22;43401;43.788;-0.712;2022-07-05T03:25:10;19.80;99.90
57566;DHT22;43401;43.788;-0.712;2022-07-05T03:27:36;19.80;99.90
57566;DHT22;43401;43.788;-0.712;2022-07-05T03:30:03;19.80;99.90
57566;DHT22;43401;43.788;-0.712;2022-07-05T03:32:29;19.60;99.90
57566;DHT22;43401;43.788;-0.712;2022-07-05T03:34:55;19.60;99.90
57566;DHT22;43401;43.788;-0.712;2022-07-05T03:37:21;19.50;99.90
57566;DHT22;43401;43.788;-0.712;2022-07-05T03:39:47;19.60;99.90
57566;DHT22;43401;43.788;-0.712;2022-07-05T03:42:13;19.70;99.90
57566;DHT22;43401;43.788;-0.712;2022-07-05T03:44:38;19.70;99.90
57566;DHT22;43401;43.788;-0.712;2022-07-05T03:47:04;19.70;99.90
57566;DHT22;43401;43.788;-0.712;2022-07-05T03:49:30;19.60;99.90
57566;DHT22;43401;43.788;-0.712;2022-07-05T03:51:56;19.60;99.90
57566;DHT22;43401;43.788;-0.712;2022-07-05T03:54:21;19.50;99.90
57566;DHT22;43401;43.788;-0.712;2022-07-05T03:56:47;19.50;99.90
57566;DHT22;43401;43.788;-0.712;2022-07-05T03:59:13;19.50;99.90
57566;DHT22;43401;43.788;-0.712;2022-07-05T04:01:38;19.40;99.90
57566;DHT22;43401;43.788;-0.712;2022-07-05T04:04:04;19.50;99.90
57566;DHT22;43401;43.788;-0.712;2022-07-05T04:06:30;19.40;99.90
57566;DHT22;43401;43.788;-0.712;2022-07-05T04:08:55;19.30;99.90
57566;DHT22;43401;43.788;-0.712;2022-07-05T04:11:21;19.40;99.90
57566;DHT22;43401;43.788;-0.712;2022-07-05T04:13:47;19.40;99.90
57566;DHT22;43401;43.788;-0.712;2022-07-05T04:16:13;19.40;99.90
57566;DHT22;43401;43.788;-0.712;2022-07-05T04:18:38;19.50;99.90
57566;DHT22;43401;43.788;-0.712;2022-07-05T04:21:05;19.40;99.90
57566;DHT22;43401;43.788;-0.712;2022-07-05T04:23:31;19.30;99.90
57566;DHT22;43401;43.788;-0.712;2022-07-05T04:25:57;19.30;99.90
57566;DHT22;43401;43.788;-0.712;2022-07-05T04:28:23;19.30;99.90
57566;DHT22;43401;43.788;-0.712;2022-07-05T04:30:49;19.40;99.90
57566;DHT22;43401;43.788;-0.712;2022-07-05T04:33:14;19.40;99.90
57566;DHT22;43401;43.788;-0.712;2022-07-05T04:35:40;19.40;99.90
57566;DHT22;43401;43.788;-0.712;2022-07-05T04:38:06;19.30;99.90
57566;DHT22;43401;43.788;-0.712;2022-07-05T04:40:32;19.30;99.90
57566;DHT22;43401;43.788;-0.712;2022-07-05T04:42:58;19.30;99.90
57566;DHT22;43401;43.788;-0.712;2022-07-05T04:45:23;19.30;99.90
57566;DHT22;43401;43.788;-0.712;2022-07-05T04:47:49;19.10;99.90
57566;DHT22;43401;43.788;-0.712;2022-07-05T04:50:15;19.20;99.90
57566;DHT22;43401;43.788;-0.712;2022-07-05T04:52:40;19.20;99.90
57566;DHT22;43401;43.788;-0.712;2022-07-05T04:55:06;19.20;99.90
57566;DHT22;43401;43.788;-0.712;2022-07-05T04:57:39;19.20;99.90
57566;DHT22;43401;43.788;-0.712;2022-07-05T05:00:06;19.30;99.90
57566;DHT22;43401;43.788;-0.712;2022-07-05T05:02:32;19.30;99.90
57566;DHT22;43401;43.788;-0.712;2022-07-05T05:04:58;19.30;99.90
57566;DHT22;43401;43.788;-0.712;2022-07-05T05:07:24;19.20;99.90
57566;DHT22;43401;43.788;-0.712;2022-07-05T05:09:49;19.30;99.90
57566;DHT22;43401;43.788;-0.712;2022-07-05T05:12:15;19.40;99.90
57566;DHT22;43401;43.788;-0.712;2022-07-05T05:14:40;19.40;99.90
57566;DHT22;43401;43.788;-0.712;2022-07-05T05:17:06;19.40;99.90
57566;DHT22;43401;43.788;-0.712;2022-07-05T05:19:32;19.20;99.90
57566;DHT22;43401;43.788;-0.712;2022-07-05T05:21:58;19.20;99.90
57566;DHT22;43401;43.788;-0.712;2022-07-05T05:24:23;19.30;99.90
57566;DHT22;43401;43.788;-0.712;2022-07-05T05:26:49;19.40;99.90
57566;DHT22;43401;43.788;-0.712;2022-07-05T05:29:16;19.40;99.90
57566;DHT22;43401;43.788;-0.712;2022-07-05T05:31:42;19.40;99.90
57566;DHT22;43401;43.788;-0.712;2022-07-05T05:34:08;19.20;99.90
57566;DHT22;43401;43.788;-0.712;2022-07-05T05:36:34;19.30;99.90
57566;DHT22;43401;43.788;-0.712;2022-07-05T05:38:59;19.30;99.90
57566;DHT22;43401;43.788;-0.712;2022-07-05T05:41:25;19.40;99.90
57566;DHT22;43401;43.788;-0.712;2022-07-05T05:43:51;19.50;99.90
57566;DHT22;43401;43.788;-0.712;2022-07-05T05:46:17;19.60;99.90
57566;DHT22;43401;43.788;-0.712;2022-07-05T05:48:42;19.40;99.90
57566;DHT22;43401;43.788;-0.712;2022-07-05T05:51:08;19.50;99.90
57566;DHT22;43401;43.788;-0.712;2022-07-05T05:53:34;19.60;99.90
57566;DHT22;43401;43.788;-0.712;2022-07-05T05:55:59;19.50;99.90
57566;DHT22;43401;43.788;-0.712;2022-07-05T05:58:25;19.60;99.90
57566;DHT22;43401;43.788;-0.712;2022-07-05T06:00:51;19.70;99.90
57566;DHT22;43401;43.788;-0.712;2022-07-05T06:03:22;19.70;99.90
57566;DHT22;43401;43.788;-0.712;2022-07-05T06:05:50;19.70;99.90
57566;DHT22;43401;43.788;-0.712;2022-07-05T06:08:17;19.70;99.90
57566;DHT22;43401;43.788;-0.712;2022-07-05T06:10:43;19.70;99.90
57566;DHT22;43401;43.788;-0.712;2022-07-05T06:13:10;19.70;99.90
57566;DHT22;43401;43.788;-0.712;2022-07-05T06:15:37;19.60;99.90
57566;DHT22;43401;43.788;-0.712;2022-07-05T06:18:03;19.60;99.90
57566;DHT22;43401;43.788;-0.712;2022-07-05T06:20:31;19.60;99.90
57566;DHT22;43401;43.788;-0.712;2022-07-05T06:22:57;19.80;99.90
57566;DHT22;43401;43.788;-0.712;2022-07-05T06:25:23;20.00;99.90
57566;DHT22;43401;43.788;-0.712;2022-07-05T06:27:55;20.00;99.90
57566;DHT22;43401;43.788;-0.712;2022-07-05T06:30:22;20.10;99.90
57566;DHT22;43401;43.788;-0.712;2022-07-05T06:32:49;20.20;99.90
57566;DHT22;43401;43.788;-0.712;2022-07-05T06:35:15;20.20;99.90
57566;DHT22;43401;43.788;-0.712;2022-07-05T06:37:46;20.30;99.90
57566;DHT22;43401;43.788;-0.712;2022-07-05T06:40:16;20.30;99.90
57566;DHT22;43401;43.788;-0.712;2022-07-05T06:42:42;20.40;99.90
57566;DHT22;43401;43.788;-0.712;2022-07-05T06:45:08;20.50;99.90
57566;DHT22;43401;43.788;-0.712;2022-07-05T06:47:35;20.50;99.90
57566;DHT22;43401;43.788;-0.712;2022-07-05T06:50:02;20.40;99.90
57566;DHT22;43401;43.788;-0.712;2022-07-05T06:52:32;20.60;99.90
57566;DHT22;43401;43.788;-0.712;2022-07-05T06:55:01;20.50;99.90
57566;DHT22;43401;43.788;-0.712;2022-07-05T06:57:27;20.40;99.90
57566;DHT22;43401;43.788;-0.712;2022-07-05T06:59:53;20.70;99.90
57566;DHT22;43401;43.788;-0.712;2022-07-05T07:02:19;20.80;99.90
57566;DHT22;43401;43.788;-0.712;2022-07-05T07:04:46;20.80;99.90
57566;DHT22;43401;43.788;-0.712;2022-07-05T07:07:12;20.60;99.90
57566;DHT22;43401;43.788;-0.712;2022-07-05T07:10:01;20.90;99.90
57566;DHT22;43401;43.788;-0.712;2022-07-05T07:12:28;20.50;99.90
57566;DHT22;43401;43.788;-0.712;2022-07-05T07:14:55;20.70;99.90
57566;DHT22;43401;43.788;-0.712;2022-07-05T07:17:21;21.00;99.90
57566;DHT22;43401;43.788;-0.712;2022-07-05T07:19:47;21.10;99.90
57566;DHT22;43401;43.788;-0.712;2022-07-05T07:22:13;21.10;99.90
57566;DHT22;43401;43.788;-0.712;2022-07-05T07:24:38;21.20;99.90
57566;DHT22;43401;43.788;-0.712;2022-07-05T07:27:04;21.30;99.90
57566;DHT22;43401;43.788;-0.712;2022-07-05T07:29:32;21.40;99.90
57566;DHT22;43401;43.788;-0.712;2022-07-05T07:31:59;21.40;99.90
57566;DHT22;43401;43.788;-0.712;2022-07-05T07:34:26;20.90;99.90
57566;DHT22;43401;43.788;-0.712;2022-07-05T07:36:53;21.20;99.90
57566;DHT22;43401;43.788;-0.712;2022-07-05T07:39:19;21.20;99.90
57566;DHT22;43401;43.788;-0.712;2022-07-05T07:41:45;21.50;99.90
57566;DHT22;43401;43.788;-0.712;2022-07-05T07:44:11;21.30;99.90
57566;DHT22;43401;43.788;-0.712;2022-07-05T07:46:37;21.60;99.90
57566;DHT22;43401;43.788;-0.712;2022-07-05T07:49:06;21.40;99.90
57566;DHT22;43401;43.788;-0.712;2022-07-05T07:51:32;21.10;99.90
57566;DHT22;43401;43.788;-0.712;2022-07-05T07:53:58;20.90;99.90
57566;DHT22;43401;43.788;-0.712;2022-07-05T07:56:24;21.10;99.90
57566;DHT22;43401;43.788;-0.712;2022-07-05T07:58:49;21.20;99.90
57566;DHT22;43401;43.788;-0.712;2022-07-05T08:01:15;21.30;99.90
57566;DHT22;43401;43.788;-0.712;2022-07-05T08:03:42;21.20;99.90
57566;DHT22;43401;43.788;-0.712;2022-07-05T08:06:08;21.70;99.90
57566;DHT22;43401;43.788;-0.712;2022-07-05T08:08:40;22.00;99.90
57566;DHT22;43401;43.788;-0.712;2022-07-05T08:11:07;22.00;99.90
57566;DHT22;43401;43.788;-0.712;2022-07-05T08:13:33;22.10;99.90
57566;DHT22;43401;43.788;-0.712;2022-07-05T08:15:59;22.00;99.90
57566;DHT22;43401;43.788;-0.712;2022-07-05T08:18:25;22.10;99.90
57566;DHT22;43401;43.788;-0.712;2022-07-05T08:21:10;22.10;99.90
57566;DHT22;43401;43.788;-0.712;2022-07-05T08:23:54;22.00;99.90
57566;DHT22;43401;43.788;-0.712;2022-07-05T08:26:20;22.30;99.90
57566;DHT22;43401;43.788;-0.712;2022-07-05T08:28:46;22.40;99.90
57566;DHT22;43401;43.788;-0.712;2022-07-05T08:31:12;22.60;99.90
57566;DHT22;43401;43.788;-0.712;2022-07-05T08:33:38;22.50;99.90
57566;DHT22;43401;43.788;-0.712;2022-07-05T08:36:04;22.50;99.90
57566;DHT22;43401;43.788;-0.712;2022-07-05T08:38:29;22.60;99.90
57566;DHT22;43401;43.788;-0.712;2022-07-05T08:40:56;22.70;99.90
57566;DHT22;43401;43.788;-0.712;2022-07-05T08:43:23;22.70;99.90
57566;DHT22;43401;43.788;-0.712;2022-07-05T08:45:53;22.80;99.90
57566;DHT22;43401;43.788;-0.712;2022-07-05T08:48:19;22.80;99.90
57566;DHT22;43401;43.788;-0.712;2022-07-05T08:50:46;22.90;99.90
57566;DHT22;43401;43.788;-0.712;2022-07-05T08:53:15;22.90;99.90
57566;DHT22;43401;43.788;-0.712;2022-07-05T08:55:41;22.80;99.90
57566;DHT22;43401;43.788;-0.712;2022-07-05T08:58:07;22.90;99.90
57566;DHT22;43401;43.788;-0.712;2022-07-05T09:00:35;23.10;99.90
57566;DHT22;43401;43.788;-0.712;2022-07-05T09:03:01;23.10;99.90
57566;DHT22;43401;43.788;-0.712;2022-07-05T09:05:28;23.30;99.90
57566;DHT22;43401;43.788;-0.712;2022-07-05T09:07:58;23.40;99.90
57566;DHT22;43401;43.788;-0.712;2022-07-05T09:10:30;23.40;99.90
57566;DHT22;43401;43.788;-0.712;2022-07-05T09:12:56;23.60;99.90
57566;DHT22;43401;43.788;-0.712;2022-07-05T09:15:23;23.70;99.90
57566;DHT22;43401;43.788;-0.712;2022-07-05T09:17:49;23.60;99.90
57566;DHT22;43401;43.788;-0.712;2022-07-05T09:20:19;23.70;99.90
57566;DHT22;43401;43.788;-0.712;2022-07-05T09:22:55;23.70;99.90
57566;DHT22;43401;43.788;-0.712;2022-07-05T09:25:27;23.60;99.90
57566;DHT22;43401;43.788;-0.712;2022-07-05T09:28:04;23.80;99.90
57566;DHT22;43401;43.788;-0.712;2022-07-05T09:30:38;23.80;99.90
57566;DHT22;43401;43.788;-0.712;2022-07-05T09:33:12;23.70;99.90
57566;DHT22;43401;43.788;-0.712;2022-07-05T09:35:40;23.60;99.90
57566;DHT22;43401;43.788;-0.712;2022-07-05T09:38:16;23.50;99.90
57566;DHT22;43401;43.788;-0.712;2022-07-05T09:40:50;23.80;99.90
57566;DHT22;43401;43.788;-0.712;2022-07-05T09:43:18;23.70;99.90
57566;DHT22;43401;43.788;-0.712;2022-07-05T09:46:04;24.00;99.90
57566;DHT22;43401;43.788;-0.712;2022-07-05T09:48:31;24.00;99.90
57566;DHT22;43401;43.788;-0.712;2022-07-05T09:51:11;24.10;99.90
57566;DHT22;43401;43.788;-0.712;2022-07-05T09:53:48;24.10;99.90
57566;DHT22;43401;43.788;-0.712;2022-07-05T09:56:14;24.20;99.90
57566;DHT22;43401;43.788;-0.712;2022-07-05T09:58:41;24.30;99.90
57566;DHT22;43401;43.788;-0.712;2022-07-05T10:01:34;24.40;99.90
57566;DHT22;43401;43.788;-0.712;2022-07-05T10:04:02;24.50;99.90
57566;DHT22;43401;43.788;-0.712;2022-07-05T10:06:30;24.30;99.90
57566;DHT22;43401;43.788;-0.712;2022-07-05T10:08:57;24.70;99.90
57566;DHT22;43401;43.788;-0.712;2022-07-05T10:11:23;24.40;99.90
57566;DHT22;43401;43.788;-0.712;2022-07-05T10:13:55;24.40;99.90
57566;DHT22;43401;43.788;-0.712;2022-07-05T10:16:23;24.80;99.90
57566;DHT22;43401;43.788;-0.712;2022-07-05T10:18:54;24.90;99.90
57566;DHT22;43401;43.788;-0.712;2022-07-05T10:21:20;24.90;99.90
57566;DHT22;43401;43.788;-0.712;2022-07-05T10:23:48;25.20;99.90
57566;DHT22;43401;43.788;-0.712;2022-07-05T10:26:16;25.40;99.90
57566;DHT22;43401;43.788;-0.712;2022-07-05T10:28:47;25.00;99.90
57566;DHT22;43401;43.788;-0.712;2022-07-05T10:31:17;24.80;99.90
57566;DHT22;43401;43.788;-0.712;2022-07-05T10:33:43;24.90;99.90
57566;DHT22;43401;43.788;-0.712;2022-07-05T10:36:10;25.00;99.90
57566;DHT22;43401;43.788;-0.712;2022-07-05T10:38:39;25.00;99.90
57566;DHT22;43401;43.788;-0.712;2022-07-05T10:41:08;25.20;99.90
57566;DHT22;43401;43.788;-0.712;2022-07-05T10:43:34;25.00;99.90
57566;DHT22;43401;43.788;-0.712;2022-07-05T10:46:00;25.10;99.90
57566;DHT22;43401;43.788;-0.712;2022-07-05T10:48:28;25.30;99.90
57566;DHT22;43401;43.788;-0.712;2022-07-05T10:51:19;25.10;99.90
57566;DHT22;43401;43.788;-0.712;2022-07-05T10:56:12;24.90;99.90
57566;DHT22;43401;43.788;-0.712;2022-07-05T10:58:42;25.10;99.90
57566;DHT22;43401;43.788;-0.712;2022-07-05T11:03:48;25.50;99.90
57566;DHT22;43401;43.788;-0.712;2022-07-05T11:06:21;25.90;99.90
57566;DHT22;43401;43.788;-0.712;2022-07-05T11:11:35;25.90;99.90
57566;DHT22;43401;43.788;-0.712;2022-07-05T11:14:03;25.80;99.90
57566;DHT22;43401;43.788;-0.712;2022-07-05T11:16:34;25.80;99.90
57566;DHT22;43401;43.788;-0.712;2022-07-05T11:19:11;25.90;99.90
57566;DHT22;43401;43.788;-0.712;2022-07-05T11:21:39;26.10;99.90
57566;DHT22;43401;43.788;-0.712;2022-07-05T11:26:48;26.20;99.90
57566;DHT22;43401;43.788;-0.712;2022-07-05T11:29:51;26.10;99.90
57566;DHT22;43401;43.788;-0.712;2022-07-05T11:32:34;26.10;99.90
57566;DHT22;43401;43.788;-0.712;2022-07-05T11:35:18;26.20;99.90
57566;DHT22;43401;43.788;-0.712;2022-07-05T11:38:03;26.60;99.90
57566;DHT22;43401;43.788;-0.712;2022-07-05T11:40:32;26.50;99.90
57566;DHT22;43401;43.788;-0.712;2022-07-05T11:42:58;26.70;99.90
57566;DHT22;43401;43.788;-0.712;2022-07-05T11:45:24;26.50;99.90
57566;DHT22;43401;43.788;-0.712;2022-07-05T11:47:54;26.40;99.90
57566;DHT22;43401;43.788;-0.712;2022-07-05T11:50:26;26.60;99.90
57566;DHT22;43401;43.788;-0.712;2022-07-05T11:52:52;26.90;99.90
57566;DHT22;43401;43.788;-0.712;2022-07-05T11:55:18;26.80;99.90
57566;DHT22;43401;43.788;-0.712;2022-07-05T11:57:52;26.50;99.90
57566;DHT22;43401;43.788;-0.712;2022-07-05T12:00:35;26.30;99.90
57566;DHT22;43401;43.788;-0.712;2022-07-05T12:03:13;26.60;99.90
57566;DHT22;43401;43.788;-0.712;2022-07-05T12:05:39;26.30;99.90
57566;DHT22;43401;43.788;-0.712;2022-07-05T12:08:06;26.40;99.90
57566;DHT22;43401;43.788;-0.712;2022-07-05T12:10:31;26.80;99.90
57566;DHT22;43401;43.788;-0.712;2022-07-05T12:13:16;27.10;99.90
57566;DHT22;43401;43.788;-0.712;2022-07-05T12:15:41;27.00;99.90
57566;DHT22;43401;43.788;-0.712;2022-07-05T12:18:08;27.10;99.90
57566;DHT22;43401;43.788;-0.712;2022-07-05T12:20:36;27.00;99.90
57566;DHT22;43401;43.788;-0.712;2022-07-05T12:23:02;27.20;99.90
57566;DHT22;43401;43.788;-0.712;2022-07-05T12:25:30;27.30;99.90
57566;DHT22;43401;43.788;-0.712;2022-07-05T12:27:57;27.20;99.90
57566;DHT22;43401;43.788;-0.712;2022-07-05T12:30:24;26.90;99.90
57566;DHT22;43401;43.788;-0.712;2022-07-05T12:33:07;27.40;99.90
57566;DHT22;43401;43.788;-0.712;2022-07-05T12:35:47;27.10;99.90
57566;DHT22;43401;43.788;-0.712;2022-07-05T12:38:17;27.30;99.90
57566;DHT22;43401;43.788;-0.712;2022-07-05T12:40:59;27.20;99.90
57566;DHT22;43401;43.788;-0.712;2022-07-05T12:43:25;27.50;99.90
57566;DHT22;43401;43.788;-0.712;2022-07-05T12:46:18;27.40;99.90
57566;DHT22;43401;43.788;-0.712;2022-07-05T12:48:50;27.60;99.90
57566;DHT22;43401;43.788;-0.712;2022-07-05T12:51:35;27.50;99.90
57566;DHT22;43401;43.788;-0.712;2022-07-05T12:54:02;27.60;99.90
57566;DHT22;43401;43.788;-0.712;2022-07-05T12:56:51;27.60;99.90
57566;DHT22;43401;43.788;-0.712;2022-07-05T12:59:36;27.70;99.90
57566;DHT22;43401;43.788;-0.712;2022-07-05T13:02:03;27.60;99.90
57566;DHT22;43401;43.788;-0.712;2022-07-05T13:04:29;27.60;99.90
57566;DHT22;43401;43.788;-0.712;2022-07-05T13:07:03;27.50;99.90
57566;DHT22;43401;43.788;-0.712;2022-07-05T13:09:30;27.60;99.90
57566;DHT22;43401;43.788;-0.712;2022-07-05T13:12:13;28.10;99.90
57566;DHT22;43401;43.788;-0.712;2022-07-05T13:17:07;28.40;99.90
57566;DHT22;43401;43.788;-0.712;2022-07-05T13:19:34;28.50;99.90
57566;DHT22;43401;43.788;-0.712;2022-07-05T13:22:00;28.20;99.90
57566;DHT22;43401;43.788;-0.712;2022-07-05T13:24:26;28.30;99.90
57566;DHT22;43401;43.788;-0.712;2022-07-05T13:26:52;28.00;99.90
57566;DHT22;43401;43.788;-0.712;2022-07-05T13:29:18;28.00;99.90
57566;DHT22;43401;43.788;-0.712;2022-07-05T13:31:44;28.10;99.90
57566;DHT22;43401;43.788;-0.712;2022-07-05T13:34:10;28.30;99.90
57566;DHT22;43401;43.788;-0.712;2022-07-05T13:36:35;28.30;99.90
57566;DHT22;43401;43.788;-0.712;2022-07-05T13:39:01;28.70;99.90
57566;DHT22;43401;43.788;-0.712;2022-07-05T13:41:27;28.70;99.90
57566;DHT22;43401;43.788;-0.712;2022-07-05T13:43:52;28.60;99.90
57566;DHT22;43401;43.788;-0.712;2022-07-05T13:46:18;28.20;99.90
57566;DHT22;43401;43.788;-0.712;2022-07-05T13:48:44;28.40;99.90
57566;DHT22;43401;43.788;-0.712;2022-07-05T13:51:10;28.60;99.90
57566;DHT22;43401;43.788;-0.712;2022-07-05T13:53:35;28.30;99.90
57566;DHT22;43401;43.788;-0.712;2022-07-05T13:56:05;28.20;99.90
57566;DHT22;43401;43.788;-0.712;2022-07-05T13:58:32;28.30;99.90
57566;DHT22;43401;43.788;-0.712;2022-07-05T14:01:01;28.20;99.90
57566;DHT22;43401;43.788;-0.712;2022-07-05T14:03:28;28.30;99.90
57566;DHT22;43401;43.788;-0.712;2022-07-05T14:05:54;28.40;99.90
57566;DHT22;43401;43.788;-0.712;2022-07-05T14:08:21;28.70;99.90
57566;DHT22;43401;43.788;-0.712;2022-07-05T14:10:56;28.60;99.90
57566;DHT22;43401;43.788;-0.712;2022-07-05T14:13:25;28.30;99.90
57566;DHT22;43401;43.788;-0.712;2022-07-05T14:15:52;28.70;99.90
57566;DHT22;43401;43.788;-0.712;2022-07-05T14:18:19;28.60;99.90
57566;DHT22;43401;43.788;-0.712;2022-07-05T14:20:46;28.70;99.90
57566;DHT22;43401;43.788;-0.712;2022-07-05T14:23:13;28.60;99.90
57566;DHT22;43401;43.788;-0.712;2022-07-05T14:25:40;28.40;99.90
57566;DHT22;43401;43.788;-0.712;2022-07-05T14:28:06;28.60;99.90
57566;DHT22;43401;43.788;-0.712;2022-07-05T14:30:40;28.30;99.90
57566;DHT22;43401;43.788;-0.712;2022-07-05T14:33:06;28.50;99.90
57566;DHT22;43401;43.788;-0.712;2022-07-05T14:35:33;28.50;99.90
57566;DHT22;43401;43.788;-0.712;2022-07-05T14:37:59;28.40;99.90
57566;DHT22;43401;43.788;-0.712;2022-07-05T14:40:25;28.30;99.90
57566;DHT22;43401;43.788;-0.712;2022-07-05T14:42:54;28.30;99.90
57566;DHT22;43401;43.788;-0.712;2022-07-05T14:45:20;28.30;99.90
57566;DHT22;43401;43.788;-0.712;2022-07-05T14:47:47;28.30;99.90
57566;DHT22;43401;43.788;-0.712;2022-07-05T14:50:13;28.30;99.90
57566;DHT22;43401;43.788;-0.712;2022-07-05T14:52:40;28.20;99.90
57566;DHT22;43401;43.788;-0.712;2022-07-05T14:55:07;28.30;99.90
57566;DHT22;43401;43.788;-0.712;2022-07-05T14:57:33;28.40;99.90
57566;DHT22;43401;43.788;-0.712;2022-07-05T14:59:58;28.40;99.90
57566;DHT22;43401;43.788;-0.712;2022-07-05T15:02:24;28.60;99.90
57566;DHT22;43401;43.788;-0.712;2022-07-05T15:04:50;28.40;99.90
57566;DHT22;43401;43.788;-0.712;2022-07-05T15:07:15;28.20;99.90
57566;DHT22;43401;43.788;-0.712;2022-07-05T15:09:41;28.50;99.90
57566;DHT22;43401;43.788;-0.712;2022-07-05T15:12:07;28.80;99.90
57566;DHT22;43401;43.788;-0.712;2022-07-05T15:14:33;28.50;99.90
57566;DHT22;43401;43.788;-0.712;2022-07-05T15:16:59;28.60;99.90
57566;DHT22;43401;43.788;-0.712;2022-07-05T15:19:25;28.50;99.90
57566;DHT22;43401;43.788;-0.712;2022-07-05T15:21:51;28.50;99.90
57566;DHT22;43401;43.788;-0.712;2022-07-05T15:24:17;28.40;99.90
57566;DHT22;43401;43.788;-0.712;2022-07-05T15:26:44;28.30;99.90
57566;DHT22;43401;43.788;-0.712;2022-07-05T15:29:10;28.30;99.90
57566;DHT22;43401;43.788;-0.712;2022-07-05T15:31:36;28.40;99.90
57566;DHT22;43401;43.788;-0.712;2022-07-05T15:34:03;28.30;99.90